Time;durP1;ratioP1;P1;durP2;ratioP2;P2;SDS_P1;SDS_P2;PMS_P1;PMS_P2;Temp;Humidity;BMP_temperature;BMP_pressure;BME280_temperature;BME280_humidity;BME280_pressure;Samples;Min_cycle;Max_cycle;Signal;HPM_P1;HPM_P2
2021/07/26 00:01:20;;;;;;;;;9.00;8.00;;;;;19.93;67.44;100643.44;5036116;28;45517;-65
2021/07/26 00:03:46;;;;;;;;;9.67;8.33;;;;;19.90;67.82;100643.81;5035285;28;49564;-65
2021/07/26 00:06:11;;;;;;;;;12.67;9.67;;;;;19.91;67.96;100642.78;5035255;28;45466;-65
2021/07/26 00:08:37;;;;;;;;;7.00;6.33;;;;;20.00;67.66;100648.06;5035269;28;45460;-65
2021/07/26 00:11:06;;;;;;;;;8.00;7.00;;;;;20.01;67.67;100645.22;5036393;28;45430;-65
2021/07/26 00:13:32;;;;;;;;;8.33;7.33;;;;;19.98;67.64;100640.25;5034903;28;45472;-66
2021/07/26 00:15:57;;;;;;;;;9.00;7.00;;;;;19.96;67.72;100639.59;5027187;28;45967;-64
2021/07/26 00:18:23;;;;;;;;;7.67;7.33;;;;;19.95;67.93;100635.25;5022986;28;45416;-65
2021/07/26 00:20:49;;;;;;;;;10.00;7.00;;;;;19.87;67.53;100633.47;5031814;28;45576;-65
2021/07/26 00:23:15;;;;;;;;;7.00;6.00;;;;;19.83;67.40;100637.50;5031151;28;45364;-65
2021/07/26 00:25:40;;;;;;;;;5.00;5.00;;;;;19.79;67.87;100633.50;5034845;28;47058;-64
2021/07/26 00:28:08;;;;;;;;;8.00;8.00;;;;;19.78;68.13;100629.19;5035289;28;45869;-66
2021/07/26 00:30:34;;;;;;;;;10.00;7.00;;;;;19.77;67.38;100631.03;5029724;28;45435;-65
2021/07/26 00:33:00;;;;;;;;;9.67;7.00;;;;;19.82;67.75;100632.34;5019696;28;45376;-66
2021/07/26 00:35:25;;;;;;;;;9.00;7.33;;;;;19.86;67.82;100634.50;5035457;28;45335;-66
2021/07/26 00:37:50;;;;;;;;;6.00;4.67;;;;;19.94;67.53;100623.78;5034747;28;45391;-65
2021/07/26 00:40:16;;;;;;;;;6.67;6.33;;;;;20.18;67.19;100624.56;5034278;28;45509;-66
2021/07/26 00:42:42;;;;;;;;;8.00;5.00;;;;;20.32;66.70;100635.47;5034892;28;45473;-65
2021/07/26 00:45:07;;;;;;;;;6.00;6.00;;;;;20.34;66.65;100633.44;5034733;28;50982;-66
2021/07/26 00:47:33;;;;;;;;;7.00;6.00;;;;;20.40;66.25;100636.22;5035069;28;45484;-65
2021/07/26 00:49:58;;;;;;;;;8.00;7.00;;;;;20.42;65.91;100638.69;5034937;28;45452;-65
2021/07/26 00:52:25;;;;;;;;;8.33;7.33;;;;;20.55;66.23;100633.59;5033129;28;45392;-65
2021/07/26 00:54:51;;;;;;;;;9.00;8.00;;;;;20.55;65.75;100636.25;5034661;28;45570;-65
2021/07/26 00:57:19;;;;;;;;;9.67;8.00;;;;;20.45;65.41;100631.16;5035422;28;45376;-65
2021/07/26 00:59:44;;;;;;;;;7.00;7.00;;;;;20.33;65.47;100637.97;5036075;28;46728;-66
2021/07/26 01:02:09;;;;;;;;;14.00;8.00;;;;;20.22;66.08;100631.22;5035398;28;45453;-65
2021/07/26 01:04:35;;;;;;;;;11.00;10.67;;;;;20.17;65.96;100638.09;5034437;28;47081;-65
2021/07/26 01:07:00;;;;;;;;;12.00;10.00;;;;;20.18;65.54;100640.56;5033464;28;45341;-65
2021/07/26 01:09:26;;;;;;;;;10.67;9.00;;;;;20.14;66.21;100633.94;5035251;28;46118;-67
2021/07/26 01:11:52;;;;;;;;;9.00;9.00;;;;;20.07;65.94;100633.00;5034522;28;45329;-66
2021/07/26 01:14:17;;;;;;;;;12.33;11.00;;;;;20.03;66.33;100637.03;5035197;28;45423;-65
2021/07/26 01:16:44;;;;;;;;;14.33;11.67;;;;;19.98;66.70;100634.06;5035017;28;45589;-65
2021/07/26 01:19:10;;;;;;;;;13.00;10.33;;;;;19.88;66.81;100637.00;5033222;28;45530;-66
2021/07/26 01:21:35;;;;;;;;;9.67;9.00;;;;;19.91;66.87;100644.63;5031141;28;45344;-65
2021/07/26 01:24:01;;;;;;;;;17.33;14.00;;;;;19.94;66.93;100645.09;5033914;28;45558;-66
2021/07/26 01:26:27;;;;;;;;;13.00;13.00;;;;;19.94;67.25;100645.09;5035083;28;45416;-61
2021/07/26 01:28:58;;;;;;;;;13.33;10.67;;;;;19.88;67.17;100644.97;5034268;28;45365;-60
2021/07/26 01:31:24;;;;;;;;;15.67;14.33;;;;;19.87;67.28;100648.66;5034272;28;45436;-61
2021/07/26 01:33:51;;;;;;;;;15.00;15.00;;;;;19.80;66.78;100643.16;5034193;28;47315;-59
2021/07/26 01:36:18;;;;;;;;;16.00;14.00;;;;;19.74;67.34;100643.88;5034202;28;45977;-60
2021/07/26 01:38:45;;;;;;;;;14.00;11.33;;;;;19.68;67.23;100644.56;5034520;28;45348;-61
2021/07/26 01:41:12;;;;;;;;;15.67;13.67;;;;;19.65;67.51;100651.06;5032800;28;45440;-60
2021/07/26 01:43:40;;;;;;;;;14.33;13.33;;;;;19.61;67.46;100647.09;5035992;28;46249;-60
2021/07/26 01:46:22;;;;;;;;;17.33;14.33;;;;;19.55;67.35;100655.78;5035858;28;45428;-63
2021/07/26 01:48:59;;;;;;;;;14.00;12.00;;;;;19.51;67.95;100649.16;5034477;28;45285;-61
2021/07/26 01:51:44;;;;;;;;;16.00;14.00;;;;;19.69;66.92;100651.56;5028839;28;45531;-60
2021/07/26 01:54:11;;;;;;;;;12.67;12.67;;;;;19.68;66.72;100644.56;5033556;28;46509;-63
2021/07/26 01:56:37;;;;;;;;;20.67;16.00;;;;;19.66;67.12;100654.59;5032687;28;45464;-62
2021/07/26 01:59:04;;;;;;;;;13.67;11.33;;;;;19.60;66.13;100653.44;5034363;28;45420;-61
2021/07/26 02:01:29;;;;;;;;;10.33;10.00;;;;;19.55;66.63;100664.63;5033602;28;45459;-61
2021/07/26 02:03:56;;;;;;;;;13.67;12.67;;;;;19.55;66.84;100663.78;5033825;28;46192;-62
2021/07/26 02:06:21;;;;;;;;;13.67;12.33;;;;;19.62;66.30;100668.25;5033747;28;45482;-62
2021/07/26 02:08:47;;;;;;;;;13.00;13.00;;;;;19.58;66.26;100668.78;5033375;28;45397;-60
2021/07/26 02:11:12;;;;;;;;;10.00;10.00;;;;;19.58;66.62;100672.25;5033988;28;46705;-61
2021/07/26 02:13:37;;;;;;;;;10.33;9.00;;;;;19.60;66.49;100669.41;5033789;28;45446;-59
2021/07/26 02:16:08;;;;;;;;;9.67;9.67;;;;;19.68;66.47;100671.22;5026248;28;45526;-59
2021/07/26 02:18:34;;;;;;;;;24.67;19.00;;;;;19.69;65.09;100673.69;5032674;28;45357;-60
2021/07/26 02:20:59;;;;;;;;;11.33;8.33;;;;;19.61;65.33;100677.22;5034068;28;50178;-60
2021/07/26 02:23:24;;;;;;;;;18.33;15.00;;;;;19.51;65.64;100678.47;5034545;28;45969;-60
2021/07/26 02:25:50;;;;;;;;;8.33;8.33;;;;;19.47;65.19;100688.63;5034225;28;46251;-59
2021/07/26 02:28:15;;;;;;;;;15.67;15.67;;;;;19.45;65.52;100688.00;5034746;28;45297;-60
2021/07/26 02:30:40;;;;;;;;;9.67;7.00;;;;;19.53;65.43;100690.59;5034671;28;52691;-59
2021/07/26 02:33:06;;;;;;;;;11.00;9.67;;;;;19.51;65.23;100689.94;5032279;28;46046;-59
2021/07/26 02:35:31;;;;;;;;;8.00;7.00;;;;;19.43;65.03;100693.50;5033809;28;45316;-59
2021/07/26 02:37:58;;;;;;;;;13.00;9.67;;;;;19.32;65.03;100695.69;5023366;28;45326;-60
2021/07/26 02:40:25;;;;;;;;;8.67;8.00;;;;;19.28;65.94;100693.38;5030799;28;45780;-61
2021/07/26 02:42:50;;;;;;;;;9.67;8.00;;;;;19.36;65.73;100689.03;5032501;28;46185;-60
2021/07/26 02:45:16;;;;;;;;;9.00;8.00;;;;;19.45;66.05;100693.31;5033334;28;45499;-59
2021/07/26 02:47:41;;;;;;;;;9.67;9.67;;;;;19.45;65.49;100688.00;5033171;28;45547;-60
2021/07/26 02:50:07;;;;;;;;;15.33;14.00;;;;;19.36;65.83;100695.19;5034646;28;45495;-60
2021/07/26 02:52:33;;;;;;;;;10.00;7.00;;;;;19.28;65.66;100696.03;5033090;28;45334;-60
2021/07/26 02:54:59;;;;;;;;;12.00;11.00;;;;;19.15;65.73;100690.44;5032406;28;45439;-60
2021/07/26 02:57:24;;;;;;;;;12.00;10.00;;;;;19.05;66.00;100697.78;5033297;28;45343;-60
2021/07/26 02:59:50;;;;;;;;;12.67;9.00;;;;;18.99;66.49;100703.78;5033739;28;46502;-60
2021/07/26 03:02:15;;;;;;;;;9.00;9.00;;;;;18.90;66.69;100705.63;5031218;28;48331;-59
2021/07/26 03:04:40;;;;;;;;;12.33;9.33;;;;;18.79;66.64;100698.78;5035944;28;45250;-60
2021/07/26 03:07:05;;;;;;;;;12.00;9.00;;;;;18.70;66.98;100705.94;5035273;28;45467;-60
2021/07/26 03:09:31;;;;;;;;;15.67;10.67;;;;;18.65;67.64;100697.63;5036559;28;45345;-59
2021/07/26 03:11:56;;;;;;;;;11.00;11.00;;;;;18.65;67.28;100697.63;5036032;28;45885;-59
2021/07/26 03:14:22;;;;;;;;;11.33;10.00;;;;;18.57;67.49;100695.81;5036973;28;45559;-60
2021/07/26 03:16:47;;;;;;;;;11.33;10.33;;;;;18.53;67.77;100697.16;5035622;28;45404;-60
2021/07/26 03:19:12;;;;;;;;;10.33;10.33;;;;;18.50;67.77;100697.50;5036106;28;45471;-65
2021/07/26 03:21:38;;;;;;;;;9.33;9.33;;;;;18.47;67.99;100695.16;5036230;28;45510;-65
2021/07/26 03:24:04;;;;;;;;;12.67;11.33;;;;;18.43;68.14;100694.66;5036165;28;45361;-64
2021/07/26 03:26:29;;;;;;;;;11.67;10.67;;;;;18.43;68.11;100693.81;5036777;28;45377;-65
2021/07/26 03:28:54;;;;;;;;;13.33;11.67;;;;;18.43;68.33;100699.16;5036180;28;50440;-65
2021/07/26 03:31:20;;;;;;;;;11.67;11.67;;;;;18.42;68.60;100705.44;5035532;28;56461;-64
2021/07/26 03:33:45;;;;;;;;;14.00;11.33;;;;;18.38;68.50;100690.84;5030993;28;45736;-64
2021/07/26 03:36:14;;;;;;;;;15.00;11.33;;;;;18.36;68.88;100701.63;5023612;28;45559;-63
2021/07/26 03:38:40;;;;;;;;;13.67;11.67;;;;;18.35;69.30;100697.31;5036283;28;45331;-65
2021/07/26 03:41:05;;;;;;;;;12.33;12.33;;;;;18.39;69.06;100708.47;5036642;28;46281;-65
2021/07/26 03:43:31;;;;;;;;;9.00;9.00;;;;;18.39;68.99;100705.78;5032897;28;45241;-65
2021/07/26 03:45:56;;;;;;;;;13.67;12.67;;;;;18.41;69.24;100709.09;5035107;28;45430;-66
2021/07/26 03:48:22;;;;;;;;;14.00;11.00;;;;;18.46;69.42;100701.47;5035108;28;45489;-64
2021/07/26 03:50:47;;;;;;;;;23.67;21.67;;;;;18.58;68.94;100702.81;5032778;28;46022;-63
2021/07/26 03:53:15;;;;;;;;;58.00;43.50;;;;;18.62;68.91;100703.31;5031661;28;45296;-64
2021/07/26 03:55:40;;;;;;;;;13.00;11.33;;;;;18.66;69.01;100714.44;5031377;28;45504;-63
2021/07/26 03:58:06;;;;;;;;;32.00;28.67;;;;;18.68;68.87;100712.44;5035322;28;45502;-64
2021/07/26 04:00:32;;;;;;;;;13.67;13.33;;;;;18.69;68.87;100725.56;5033458;28;45503;-63
2021/07/26 04:05:38;;;;;;;;;17.00;16.00;;;;;18.71;68.88;100718.25;5036247;28;45296;-64
2021/07/26 04:08:12;;;;;;;;;16.33;14.00;;;;;18.70;68.77;100707.78;5025130;28;45591;-64
2021/07/26 04:10:40;;;;;;;;;15.33;9.00;;;;;18.68;68.80;100717.75;5033193;28;45467;-64
2021/07/26 04:13:06;;;;;;;;;17.33;16.67;;;;;18.65;68.86;100710.94;5035335;28;45567;-64
2021/07/26 04:15:31;;;;;;;;;13.00;13.00;;;;;18.69;68.70;100719.44;5034146;28;45415;-64
2021/07/26 04:17:56;;;;;;;;;12.00;12.00;;;;;18.71;68.84;100728.06;5035339;28;45366;-65
2021/07/26 04:20:22;;;;;;;;;18.00;17.00;;;;;18.67;68.95;100718.75;5035553;28;45375;-65
2021/07/26 04:22:47;;;;;;;;;16.67;16.67;;;;;18.64;68.79;100725.22;5035617;28;45236;-65
2021/07/26 04:25:13;;;;;;;;;15.00;15.00;;;;;18.58;68.97;100724.09;5035354;28;45385;-65
2021/07/26 04:27:38;;;;;;;;;16.67;14.67;;;;;18.57;69.20;100722.41;5038737;28;45495;-64
2021/07/26 04:30:05;;;;;;;;;16.67;16.00;;;;;18.62;68.98;100730.72;5041025;28;47045;-65
2021/07/26 04:32:30;;;;;;;;;74.25;56.25;;;;;18.61;69.11;100718.41;5035922;28;45249;-65
2021/07/26 04:34:59;;;;;;;;;17.00;13.33;;;;;18.63;68.98;100727.06;5035846;28;45396;-63
2021/07/26 04:37:25;;;;;;;;;19.33;19.33;;;;;18.64;69.03;100728.75;5031313;28;45506;-64
2021/07/26 04:39:51;;;;;;;;;16.00;14.67;;;;;18.64;68.95;100720.75;5030491;28;45507;-65
2021/07/26 04:42:17;;;;;;;;;25.00;22.00;;;;;18.66;69.33;100722.44;5034864;28;45420;-65
2021/07/26 04:44:42;;;;;;;;;18.67;17.67;;;;;18.69;69.10;100730.06;5034717;28;45508;-64
2021/07/26 04:47:08;;;;;;;;;18.00;14.00;;;;;18.68;69.16;100731.91;5035716;28;45335;-64
2021/07/26 04:49:33;;;;;;;;;25.00;18.33;;;;;18.67;69.18;100727.56;5035145;28;45374;-64
2021/07/26 04:51:59;;;;;;;;;14.33;14.33;;;;;18.66;69.03;100725.91;5034763;28;45385;-64
2021/07/26 04:54:24;;;;;;;;;16.33;16.33;;;;;18.70;69.29;100729.06;5034950;28;45593;-64
2021/07/26 04:56:49;;;;;;;;;15.00;11.67;;;;;18.80;69.27;100735.06;5034886;28;45642;-66
2021/07/26 04:59:15;;;;;;;;;11.67;11.67;;;;;18.92;68.99;100731.06;5034873;28;46943;-63
2021/07/26 05:01:40;;;;;;;;;14.33;13.00;;;;;19.03;68.66;100737.03;5027431;28;45413;-63
2021/07/26 05:04:05;;;;;;;;;14.67;12.33;;;;;19.12;68.64;100739.53;5034433;28;45325;-64
2021/07/26 05:06:31;;;;;;;;;12.67;12.67;;;;;19.17;68.02;100736.34;5035092;28;45402;-64
2021/07/26 05:08:56;;;;;;;;;15.00;12.33;;;;;19.16;68.08;100752.50;5034509;28;45949;-64
2021/07/26 05:11:22;;;;;;;;;13.33;11.33;;;;;19.15;68.23;100751.66;5034228;28;45344;-63
2021/07/26 05:13:48;;;;;;;;;12.33;12.33;;;;;19.11;68.24;100745.84;5034766;28;45405;-64
2021/07/26 05:16:13;;;;;;;;;12.00;10.00;;;;;19.17;68.45;100749.66;5030607;28;45483;-64
2021/07/26 05:18:38;;;;;;;;;11.33;10.00;;;;;19.34;68.08;100753.09;5034828;28;45484;-65
2021/07/26 05:21:04;;;;;;;;;12.67;11.00;;;;;19.36;67.58;100758.28;5036136;28;45372;-64
2021/07/26 05:23:29;;;;;;;;;11.67;10.33;;;;;19.32;67.59;100756.94;5034917;28;45439;-63
2021/07/26 05:25:54;;;;;;;;;15.00;13.33;;;;;19.31;67.98;100750.78;5033668;28;45606;-63
2021/07/26 05:28:20;;;;;;;;;10.00;10.00;;;;;19.35;67.80;100757.44;5033852;28;46103;-64
2021/07/26 05:30:46;;;;;;;;;11.33;11.33;;;;;19.37;67.93;100754.59;5033961;28;45428;-65
2021/07/26 05:33:11;;;;;;;;;10.00;10.00;;;;;19.38;68.14;100766.91;5034742;28;45321;-65
2021/07/26 05:35:37;;;;;;;;;12.33;10.67;;;;;19.43;67.66;100759.25;5034127;28;47023;-65
2021/07/26 05:38:03;;;;;;;;;16.67;12.33;;;;;19.39;67.46;100760.59;5034551;28;47086;-64
2021/07/26 05:40:29;;;;;;;;;11.33;9.00;;;;;19.33;68.15;100755.94;5033491;28;45579;-64
2021/07/26 05:42:54;;;;;;;;;16.00;15.00;;;;;19.32;67.97;100756.94;5033990;28;45535;-65
2021/07/26 05:45:19;;;;;;;;;10.33;9.67;;;;;19.32;68.38;100762.25;5034384;28;45519;-65
2021/07/26 05:47:49;;;;;;;;;9.67;9.00;;;;;19.32;68.13;100762.25;5036825;28;47144;-63
2021/07/26 05:50:15;;;;;;;;;15.00;12.00;;;;;19.32;68.42;100762.25;5034650;28;45404;-65
2021/07/26 05:52:40;;;;;;;;;12.00;8.00;;;;;19.33;68.35;100758.59;5034308;28;45383;-65
2021/07/26 05:55:06;;;;;;;;;14.33;10.33;;;;;19.44;68.09;100758.25;5033560;28;45599;-65
2021/07/26 05:57:35;;;;;;;;;11.67;9.00;;;;;19.41;67.83;100761.25;5033639;28;46144;-64
2021/07/26 06:00:07;;;;;;;;;11.00;9.67;;;;;19.42;68.30;100754.91;5032178;28;45806;-64
2021/07/26 06:02:33;;;;;;;;;9.33;9.00;;;;;19.38;67.79;100756.25;5034117;28;45351;-64
2021/07/26 06:04:58;;;;;;;;;5.00;5.00;;;;;19.42;68.30;100768.22;5033793;28;47294;-65
2021/07/26 06:07:23;;;;;;;;;9.33;8.00;;;;;19.56;68.10;100759.50;5033878;28;45966;-64
2021/07/26 06:09:49;;;;;;;;;9.00;8.00;;;;;19.67;68.07;100765.47;5034305;28;45399;-64
2021/07/26 06:12:14;;;;;;;;;10.00;7.00;;;;;19.74;67.05;100761.94;5031680;28;45480;-64
2021/07/26 06:14:39;;;;;;;;;7.67;7.33;;;;;19.89;67.03;100761.28;5034860;28;45238;-64
2021/07/26 06:17:05;;;;;;;;;10.33;8.00;;;;;20.00;66.88;100765.38;5035072;28;46955;-64
2021/07/26 06:19:30;;;;;;;;;11.67;8.00;;;;;20.00;66.73;100765.38;5036242;28;45442;-63
2021/07/26 06:21:56;;;;;;;;;8.67;7.00;;;;;20.05;66.20;100768.34;5034564;28;49333;-65
2021/07/26 06:24:22;;;;;;;;;13.00;8.00;;;;;20.03;66.22;100765.84;5033599;28;45246;-65
2021/07/26 06:26:50;;;;;;;;;6.33;6.00;;;;;20.09;66.23;100766.97;5033661;28;45925;-66
2021/07/26 06:29:16;;;;;;;;;7.00;6.00;;;;;20.14;65.88;100771.78;5034273;28;45428;-64
2021/07/26 06:31:43;;;;;;;;;7.33;7.00;;;;;20.13;66.17;100760.28;5034039;28;45380;-64
2021/07/26 06:34:10;;;;;;;;;8.33;5.33;;;;;20.19;66.14;100770.25;5033245;28;45321;-65
2021/07/26 06:36:36;;;;;;;;;5.33;5.33;;;;;20.26;65.63;100773.03;5033562;28;45545;-65
2021/07/26 06:39:03;;;;;;;;;4.33;3.00;;;;;20.24;65.32;100765.22;5035289;28;45570;-64
2021/07/26 06:41:29;;;;;;;;;7.00;7.00;;;;;20.28;65.66;100768.38;5037530;28;45310;-65
2021/07/26 06:43:55;;;;;;;;;8.00;6.00;;;;;20.40;65.42;100763.44;5037026;28;47840;-64
2021/07/26 06:46:20;;;;;;;;;6.67;6.67;;;;;20.54;65.46;100770.69;5036661;28;45467;-65
2021/07/26 06:48:46;;;;;;;;;5.33;5.33;;;;;20.67;64.83;100778.09;5036807;28;45348;-65
2021/07/26 06:51:11;;;;;;;;;8.67;7.67;;;;;20.65;64.54;100784.59;5036756;28;45288;-64
2021/07/26 06:53:37;;;;;;;;;7.67;7.67;;;;;20.57;64.73;100786.31;5037084;28;45459;-65
2021/07/26 06:56:06;;;;;;;;;9.67;8.67;;;;;20.53;64.93;100782.34;5037249;28;47295;-65
2021/07/26 06:58:32;;;;;;;;;7.00;6.33;;;;;20.55;65.00;100787.50;5036636;28;45424;-64
2021/07/26 07:01:04;;;;;;;;;8.67;6.67;;;;;20.60;64.68;100782.47;5036704;28;45395;-64
2021/07/26 07:03:30;;;;;;;;;10.67;8.00;;;;;20.69;64.63;100780.56;5036807;28;45614;-64
2021/07/26 07:06:07;;;;;;;;;11.00;8.00;;;;;20.77;64.81;100781.38;5036203;28;45243;-65
2021/07/26 07:08:32;;;;;;;;;10.00;7.00;;;;;20.77;64.71;100778.69;5023569;28;45705;-64
2021/07/26 07:11:08;;;;;;;;;9.00;7.00;;;;;20.76;64.21;100786.91;5036724;28;45529;-63
2021/07/26 07:13:35;;;;;;;;;6.00;5.67;;;;;20.82;64.44;100783.47;5036118;28;45587;-69
2021/07/26 07:16:01;;;;;;;;;10.67;9.00;;;;;20.92;64.11;100786.72;5031260;28;47355;-70
2021/07/26 07:18:27;;;;;;;;;9.33;8.00;;;;;21.00;64.11;100787.69;5033593;28;45365;-71
2021/07/26 07:20:53;;;;;;;;;13.33;10.33;;;;;21.07;63.11;100788.63;5038253;28;45489;-69
2021/07/26 07:23:19;;;;;;;;;14.67;11.00;;;;;21.08;63.51;100790.25;5036927;28;45372;-70
2021/07/26 07:25:44;;;;;;;;;8.33;8.33;;;;;21.14;63.40;100791.41;5036383;28;46056;-70
2021/07/26 07:28:09;;;;;;;;;12.67;10.00;;;;;21.16;63.57;100792.88;5033447;28;57598;-70
2021/07/26 07:30:35;;;;;;;;;12.67;11.33;;;;;21.14;63.62;100788.72;5035040;28;45400;-70
2021/07/26 07:33:00;;;;;;;;;51.33;39.67;;;;;21.11;63.88;100792.59;5036435;28;45307;-71
2021/07/26 07:35:26;;;;;;;;;20.00;15.33;;;;;21.10;64.32;100798.94;5032810;28;47153;-71
2021/07/26 07:37:52;;;;;;;;;16.00;15.33;;;;;21.08;63.88;100803.63;5035831;28;45446;-69
2021/07/26 07:40:18;;;;;;;;;24.33;21.67;;;;;21.01;64.38;100808.03;5036326;28;45414;-71
2021/07/26 07:42:43;;;;;;;;;18.00;14.33;;;;;20.93;64.48;100804.41;5036515;28;45447;-71
2021/07/26 07:45:09;;;;;;;;;15.67;13.00;;;;;20.79;64.68;100807.88;5036450;28;45463;-73
2021/07/26 07:47:35;;;;;;;;;14.33;11.00;;;;;20.65;65.07;100805.97;5037054;28;45392;-72
2021/07/26 07:50:01;;;;;;;;;14.33;10.67;;;;;20.56;65.67;100814.03;5036008;28;45403;-71
2021/07/26 07:52:27;;;;;;;;;56.00;47.00;;;;;20.52;65.46;100810.03;5035962;28;45396;-73
2021/07/26 07:54:52;;;;;;;;;14.67;12.67;;;;;20.45;65.74;100807.25;5036876;28;47084;-70
2021/07/26 07:57:19;;;;;;;;;3.00;3.00;;;;;20.42;65.75;100804.94;5039019;28;45479;-70
2021/07/26 07:59:45;;;;;;;;;14.33;9.00;;;;;20.40;66.15;100804.28;5037753;28;45433;-72
2021/07/26 08:02:10;;;;;;;;;11.00;8.00;;;;;20.43;65.75;100819.09;5038219;28;45421;-70
2021/07/26 08:04:36;;;;;;;;;10.00;9.00;;;;;20.51;66.07;100808.41;5037823;28;46132;-71
2021/07/26 08:07:02;;;;;;;;;12.33;10.00;;;;;20.59;65.73;100813.66;5036878;28;45613;-71
2021/07/26 08:09:27;;;;;;;;;15.00;12.00;;;;;20.72;65.63;100812.25;5037082;28;45646;-69
2021/07/26 08:11:52;;;;;;;;;14.00;11.00;;;;;20.82;64.91;100817.38;5037040;28;45289;-70
2021/07/26 08:14:18;;;;;;;;;13.33;9.67;;;;;20.90;64.74;100817.28;5036568;28;45960;-70
2021/07/26 08:16:43;;;;;;;;;11.67;11.33;;;;;20.98;64.71;100822.56;5035114;28;45400;-71
2021/07/26 08:19:08;;;;;;;;;17.67;13.00;;;;;21.11;64.20;100819.28;5035608;28;45321;-70
2021/07/26 08:21:34;;;;;;;;;16.67;13.67;;;;;21.28;63.59;100822.63;5035513;28;45559;-70
2021/07/26 08:24:00;;;;;;;;;11.67;11.00;;;;;21.46;64.08;100816.94;5036116;28;45508;-72
2021/07/26 08:26:25;;;;;;;;;13.67;12.67;;;;;21.67;63.51;100821.56;5036478;28;45494;-68
2021/07/26 08:28:50;;;;;;;;;16.00;13.00;;;;;21.80;61.79;100826.28;5035926;28;45438;-69
2021/07/26 08:31:16;;;;;;;;;16.67;16.00;;;;;21.92;62.20;100824.81;5035592;28;45289;-71
2021/07/26 08:33:41;;;;;;;;;13.00;9.00;;;;;22.05;61.63;100834.00;5034774;28;47280;-72
2021/07/26 08:36:06;;;;;;;;;12.33;11.00;;;;;22.06;61.10;100831.13;5035375;28;45479;-70
2021/07/26 08:38:32;;;;;;;;;13.33;13.33;;;;;22.09;61.18;100835.25;5048089;28;45345;-70
2021/07/26 08:40:57;;;;;;;;;15.00;15.00;;;;;22.17;60.77;100832.50;5035316;28;45339;-72
2021/07/26 08:43:23;;;;;;;;;14.67;13.00;;;;;22.23;60.50;100838.94;5034965;28;45589;-71
2021/07/26 08:45:49;;;;;;;;;16.67;12.33;;;;;22.18;60.03;100831.47;5035270;28;45362;-71
2021/07/26 08:48:15;;;;;;;;;14.00;12.67;;;;;22.10;59.79;100831.59;5035554;28;45493;-72
2021/07/26 08:50:42;;;;;;;;;13.00;11.67;;;;;22.01;59.92;100838.06;5035339;28;45358;-69
2021/07/26 08:53:08;;;;;;;;;12.67;9.33;;;;;21.93;60.01;100841.66;5035893;28;46332;-71
2021/07/26 08:55:35;;;;;;;;;11.33;9.33;;;;;21.82;60.60;100842.97;5035124;28;45534;-72
2021/07/26 08:58:02;;;;;;;;;12.33;10.67;;;;;21.82;60.92;100834.09;5035514;28;45376;-71
2021/07/26 09:00:27;;;;;;;;;11.00;11.00;;;;;21.91;60.14;100833.84;5034920;28;45560;-71
2021/07/26 09:02:53;;;;;;;;;10.33;10.00;;;;;22.09;59.86;100840.63;5033923;28;46207;-71
2021/07/26 09:05:19;;;;;;;;;10.67;8.00;;;;;22.23;60.20;100839.75;5035445;28;45431;-71
2021/07/26 09:07:47;;;;;;;;;8.33;8.00;;;;;22.28;59.38;100839.19;5033240;28;45556;-71
2021/07/26 09:10:20;;;;;;;;;12.67;9.00;;;;;22.31;59.07;100846.84;5034982;28;45535;-71
2021/07/26 09:12:48;;;;;;;;;9.00;8.00;;;;;22.30;59.59;100855.06;5035169;28;45479;-71
2021/07/26 09:15:16;;;;;;;;;9.67;9.33;;;;;22.36;59.52;100852.47;5035017;28;45551;-71
2021/07/26 09:17:44;;;;;;;;;8.33;7.33;;;;;22.44;59.38;100859.56;5049273;28;45438;-71
2021/07/26 09:20:10;;;;;;;;;9.67;8.00;;;;;22.49;59.24;100857.16;5033490;28;45380;-70
2021/07/26 09:22:41;;;;;;;;;10.00;9.33;;;;;22.55;58.89;100855.59;5034665;28;46355;-70
2021/07/26 09:25:15;;;;;;;;;6.33;6.00;;;;;22.61;58.27;100853.97;5034801;28;45430;-71
2021/07/26 09:28:00;;;;;;;;;9.67;8.33;;;;;22.64;58.01;100853.59;5033865;28;45521;-70
2021/07/26 09:30:27;;;;;;;;;9.00;9.00;;;;;22.57;58.54;100849.03;5033588;28;45574;-69
2021/07/26 09:32:53;;;;;;;;;10.67;8.00;;;;;22.51;58.62;100838.22;5033558;28;45491;-73
2021/07/26 09:35:25;;;;;;;;;8.67;8.67;;;;;22.42;58.99;100841.03;5035561;28;45454;-72
2021/07/26 09:37:57;;;;;;;;;10.33;7.33;;;;;22.34;59.70;100840.28;5035078;28;45316;-71
2021/07/26 09:40:24;;;;;;;;;14.00;11.00;;;;;22.28;60.04;100849.09;5034535;28;45479;-70
2021/07/26 09:42:50;;;;;;;;;9.33;8.33;;;;;22.19;60.21;100851.84;5034535;28;45455;-70
2021/07/26 09:45:24;;;;;;;;;9.00;9.00;;;;;22.08;59.59;100842.47;5034670;28;45563;-71
2021/07/26 09:48:12;;;;;;;;;13.67;8.67;;;;;21.94;60.17;100854.03;5034646;28;45356;-71
2021/07/26 09:50:39;;;;;;;;;12.67;9.67;;;;;21.74;62.40;100856.41;5032397;28;45530;-70
2021/07/26 09:53:18;;;;;;;;;10.33;10.33;;;;;21.56;63.25;100841.59;5035335;28;45455;-70
2021/07/26 09:55:46;;;;;;;;;9.00;9.00;;;;;21.41;63.61;100848.72;5034795;28;45506;-71
2021/07/26 09:58:14;;;;;;;;;10.00;10.00;;;;;21.33;64.21;100859.47;5034380;28;45490;-71
2021/07/26 10:00:41;;;;;;;;;14.00;12.00;;;;;21.27;64.84;100864.53;5034305;28;45468;-71
2021/07/26 10:03:09;;;;;;;;;15.00;12.00;;;;;21.22;65.40;100861.56;5032450;28;47321;-71
2021/07/26 10:05:36;;;;;;;;;12.33;12.00;;;;;21.18;66.38;100859.47;5035362;28;45438;-71
2021/07/26 10:08:03;;;;;;;;;14.00;13.00;;;;;21.12;66.22;100866.38;5035031;28;45436;-72
2021/07/26 10:10:28;;;;;;;;;16.67;14.67;;;;;21.10;66.46;100868.38;5036065;28;45520;-71
2021/07/26 10:12:54;;;;;;;;;15.00;15.00;;;;;21.16;67.22;100862.31;5035567;28;46990;-72
2021/07/26 10:15:20;;;;;;;;;13.00;10.67;;;;;21.26;66.17;100862.91;5037745;28;45681;-71
2021/07/26 10:17:47;;;;;;;;;15.67;11.33;;;;;21.37;66.24;100861.63;5037766;28;45360;-73
2021/07/26 10:20:18;;;;;;;;;25.00;19.00;;;;;21.45;65.83;100862.56;5037820;28;45459;-72
2021/07/26 10:22:50;;;;;;;;;20.00;16.67;;;;;21.50;66.17;100852.97;5037159;28;46502;-70
2021/07/26 10:25:30;;;;;;;;;15.00;13.67;;;;;21.51;66.45;100862.66;5036580;28;45447;-72
2021/07/26 10:27:59;;;;;;;;;16.33;15.33;;;;;21.52;66.52;100869.66;5037891;28;45451;-69
2021/07/26 10:30:32;;;;;;;;;19.67;17.33;;;;;21.51;67.01;100865.31;5037297;28;45427;-71
2021/07/26 10:33:01;;;;;;;;;18.67;16.67;;;;;21.61;66.96;100865.06;5021677;28;46037;-70
2021/07/26 10:35:57;;;;;;;;;19.67;15.67;;;;;21.70;66.56;100869.31;5034220;28;45346;-70
2021/07/26 10:38:44;;;;;;;;;20.33;16.00;;;;;21.91;66.21;100871.25;5037669;28;45463;-70
2021/07/26 10:41:10;;;;;;;;;18.00;15.67;;;;;22.03;65.60;100874.31;5034762;28;45362;-70
2021/07/26 10:43:59;;;;;;;;;14.00;14.00;;;;;22.11;65.20;100865.34;5037177;28;45597;-70
2021/07/26 10:46:24;;;;;;;;;17.33;17.00;;;;;22.09;64.44;100867.34;5026373;28;45403;-70
2021/07/26 10:48:50;;;;;;;;;17.00;16.00;;;;;22.01;64.59;100868.28;5036922;28;45355;-71
2021/07/26 10:51:45;;;;;;;;;14.33;12.67;;;;;21.96;65.30;100872.56;5037078;28;45359;-70
2021/07/26 10:54:31;;;;;;;;;26.33;26.33;;;;;21.90;65.38;100874.94;5020400;28;46085;-71
2021/07/26 10:57:02;;;;;;;;;23.33;19.00;;;;;21.88;65.75;100873.47;5037203;28;45459;-70
2021/07/26 11:00:09;;;;;;;;;25.33;22.33;;;;;21.83;65.16;100866.00;5032637;28;45558;-70
2021/07/26 11:02:35;;;;;;;;;23.00;20.67;;;;;21.80;65.38;100863.69;5027409;28;45566;-71
2021/07/26 11:05:23;;;;;;;;;19.00;18.67;;;;;21.77;65.02;100861.41;5036340;28;46320;-71
2021/07/26 11:08:12;;;;;;;;;29.33;23.33;;;;;21.79;64.91;100867.38;5031564;28;45500;-71
2021/07/26 11:10:48;;;;;;;;;35.00;32.00;;;;;21.86;65.18;100864.78;5034698;28;45356;-72
2021/07/26 11:13:14;;;;;;;;;21.67;18.33;;;;;21.95;65.10;100865.53;5036724;28;45280;-71
2021/07/26 11:15:55;;;;;;;;;15.33;13.33;;;;;22.07;64.26;100858.72;5035541;28;46203;-71
2021/07/26 11:18:34;;;;;;;;;17.33;17.33;;;;;22.21;64.41;100855.19;5030186;28;45374;-72